sensor_id;sensor_type;location;lat;lon;timestamp;P1;durP1;ratioP1;P2;durP2;ratioP2
2888;SDS011;1453;42.708;23.282;2023-03-19T00:00:05;42.58;;;22.95;;
2888;SDS011;1453;42.708;23.282;2023-03-19T00:02:32;38.20;;;20.45;;
2888;SDS011;1453;42.708;23.282;2023-03-19T00:05:00;33.58;;;18.65;;
2888;SDS011;1453;42.708;23.282;2023-03-19T00:07:26;33.70;;;20.50;;
2888;SDS011;1453;42.708;23.282;2023-03-19T00:09:52;31.13;;;16.88;;
2888;SDS011;1453;42.708;23.282;2023-03-19T00:12:18;33.10;;;18.52;;
2888;SDS011;1453;42.708;23.282;2023-03-19T00:14:44;43.20;;;21.80;;
2888;SDS011;1453;42.708;23.282;2023-03-19T00:17:10;30.33;;;17.87;;
2888;SDS011;1453;42.708;23.282;2023-03-19T00:19:36;32.08;;;18.73;;
2888;SDS011;1453;42.708;23.282;2023-03-19T00:22:01;33.70;;;18.37;;
2888;SDS011;1453;42.708;23.282;2023-03-19T00:24:27;33.50;;;18.88;;
2888;SDS011;1453;42.708;23.282;2023-03-19T00:26:54;35.25;;;19.45;;
2888;SDS011;1453;42.708;23.282;2023-03-19T00:29:20;38.43;;;22.60;;
2888;SDS011;1453;42.708;23.282;2023-03-19T00:31:47;33.15;;;19.83;;
2888;SDS011;1453;42.708;23.282;2023-03-19T00:34:13;43.60;;;27.52;;
2888;SDS011;1453;42.708;23.282;2023-03-19T00:36:42;55.42;;;31.02;;
2888;SDS011;1453;42.708;23.282;2023-03-19T00:39:09;70.43;;;39.40;;
2888;SDS011;1453;42.708;23.282;2023-03-19T00:41:34;71.77;;;38.73;;
2888;SDS011;1453;42.708;23.282;2023-03-19T00:44:01;70.13;;;39.80;;
2888;SDS011;1453;42.708;23.282;2023-03-19T00:46:27;75.70;;;37.72;;
2888;SDS011;1453;42.708;23.282;2023-03-19T00:48:53;70.53;;;37.33;;
2888;SDS011;1453;42.708;23.282;2023-03-19T00:51:20;58.25;;;32.78;;
2888;SDS011;1453;42.708;23.282;2023-03-19T00:53:47;69.57;;;35.50;;
2888;SDS011;1453;42.708;23.282;2023-03-19T00:56:14;71.05;;;35.22;;
2888;SDS011;1453;42.708;23.282;2023-03-19T00:58:42;68.55;;;34.78;;
2888;SDS011;1453;42.708;23.282;2023-03-19T01:01:09;54.40;;;29.95;;
2888;SDS011;1453;42.708;23.282;2023-03-19T01:03:38;61.22;;;33.83;;
2888;SDS011;1453;42.708;23.282;2023-03-19T01:06:04;67.93;;;38.15;;
2888;SDS011;1453;42.708;23.282;2023-03-19T01:08:31;75.65;;;39.17;;
2888;SDS011;1453;42.708;23.282;2023-03-19T01:11:03;80.28;;;35.65;;
2888;SDS011;1453;42.708;23.282;2023-03-19T01:13:35;51.85;;;28.83;;
2888;SDS011;1453;42.708;23.282;2023-03-19T01:16:01;49.60;;;28.00;;
2888;SDS011;1453;42.708;23.282;2023-03-19T01:18:27;44.95;;;27.38;;
2888;SDS011;1453;42.708;23.282;2023-03-19T01:20:53;54.93;;;29.73;;
2888;SDS011;1453;42.708;23.282;2023-03-19T01:23:19;32.60;;;18.27;;
2888;SDS011;1453;42.708;23.282;2023-03-19T01:25:45;37.10;;;19.03;;
2888;SDS011;1453;42.708;23.282;2023-03-19T01:28:11;37.20;;;20.90;;
2888;SDS011;1453;42.708;23.282;2023-03-19T01:30:37;34.40;;;19.47;;
2888;SDS011;1453;42.708;23.282;2023-03-19T01:33:04;34.08;;;19.48;;
2888;SDS011;1453;42.708;23.282;2023-03-19T01:35:31;31.77;;;18.15;;
2888;SDS011;1453;42.708;23.282;2023-03-19T01:37:57;28.57;;;16.97;;
2888;SDS011;1453;42.708;23.282;2023-03-19T01:40:23;26.07;;;15.73;;
2888;SDS011;1453;42.708;23.282;2023-03-19T01:45:40;33.75;;;17.60;;
2888;SDS011;1453;42.708;23.282;2023-03-19T01:48:11;39.00;;;21.27;;
2888;SDS011;1453;42.708;23.282;2023-03-19T01:51:15;34.08;;;18.20;;
2888;SDS011;1453;42.708;23.282;2023-03-19T01:53:44;34.75;;;18.48;;
2888;SDS011;1453;42.708;23.282;2023-03-19T01:58:57;34.83;;;19.00;;
2888;SDS011;1453;42.708;23.282;2023-03-19T02:01:29;26.13;;;15.80;;
2888;SDS011;1453;42.708;23.282;2023-03-19T02:03:58;26.33;;;15.20;;
2888;SDS011;1453;42.708;23.282;2023-03-19T02:06:24;32.05;;;16.98;;
2888;SDS011;1453;42.708;23.282;2023-03-19T02:08:54;26.42;;;15.60;;
2888;SDS011;1453;42.708;23.282;2023-03-19T02:11:22;33.53;;;18.75;;
2888;SDS011;1453;42.708;23.282;2023-03-19T02:13:48;29.70;;;17.35;;
2888;SDS011;1453;42.708;23.282;2023-03-19T02:16:14;28.30;;;17.50;;
2888;SDS011;1453;42.708;23.282;2023-03-19T02:18:40;30.40;;;16.50;;
2888;SDS011;1453;42.708;23.282;2023-03-19T02:21:10;36.08;;;19.63;;
2888;SDS011;1453;42.708;23.282;2023-03-19T02:24:01;40.88;;;21.85;;
2888;SDS011;1453;42.708;23.282;2023-03-19T02:26:33;32.28;;;18.35;;
2888;SDS011;1453;42.708;23.282;2023-03-19T02:29:00;32.70;;;19.13;;
2888;SDS011;1453;42.708;23.282;2023-03-19T02:31:26;30.43;;;19.67;;
2888;SDS011;1453;42.708;23.282;2023-03-19T02:37:03;36.97;;;19.92;;
2888;SDS011;1453;42.708;23.282;2023-03-19T02:39:35;36.63;;;19.45;;
2888;SDS011;1453;42.708;23.282;2023-03-19T02:42:09;33.63;;;21.35;;
2888;SDS011;1453;42.708;23.282;2023-03-19T02:44:36;32.58;;;16.92;;
2888;SDS011;1453;42.708;23.282;2023-03-19T02:47:02;26.27;;;14.67;;
2888;SDS011;1453;42.708;23.282;2023-03-19T02:49:29;32.83;;;17.20;;
2888;SDS011;1453;42.708;23.282;2023-03-19T02:51:55;23.97;;;15.53;;
2888;SDS011;1453;42.708;23.282;2023-03-19T02:54:21;29.52;;;17.00;;
2888;SDS011;1453;42.708;23.282;2023-03-19T02:56:47;34.37;;;17.23;;
2888;SDS011;1453;42.708;23.282;2023-03-19T02:59:13;30.90;;;16.17;;
2888;SDS011;1453;42.708;23.282;2023-03-19T03:01:39;24.77;;;15.98;;
2888;SDS011;1453;42.708;23.282;2023-03-19T03:04:05;34.83;;;15.23;;
2888;SDS011;1453;42.708;23.282;2023-03-19T03:06:31;31.83;;;16.67;;
2888;SDS011;1453;42.708;23.282;2023-03-19T03:08:57;37.50;;;17.70;;
2888;SDS011;1453;42.708;23.282;2023-03-19T03:11:22;30.83;;;17.57;;
2888;SDS011;1453;42.708;23.282;2023-03-19T03:13:48;33.90;;;16.33;;
2888;SDS011;1453;42.708;23.282;2023-03-19T03:16:14;28.97;;;15.70;;
2888;SDS011;1453;42.708;23.282;2023-03-19T03:18:40;25.07;;;15.40;;
2888;SDS011;1453;42.708;23.282;2023-03-19T03:21:06;21.23;;;12.82;;
2888;SDS011;1453;42.708;23.282;2023-03-19T03:23:32;25.42;;;14.40;;
2888;SDS011;1453;42.708;23.282;2023-03-19T03:25:58;20.60;;;11.90;;
2888;SDS011;1453;42.708;23.282;2023-03-19T03:28:24;22.40;;;11.23;;
2888;SDS011;1453;42.708;23.282;2023-03-19T03:30:49;22.20;;;11.90;;
2888;SDS011;1453;42.708;23.282;2023-03-19T03:33:15;21.67;;;12.03;;
2888;SDS011;1453;42.708;23.282;2023-03-19T03:35:41;21.43;;;11.23;;
2888;SDS011;1453;42.708;23.282;2023-03-19T03:38:07;22.95;;;11.23;;
2888;SDS011;1453;42.708;23.282;2023-03-19T03:40:33;19.97;;;11.00;;
2888;SDS011;1453;42.708;23.282;2023-03-19T03:43:00;17.13;;;10.93;;
2888;SDS011;1453;42.708;23.282;2023-03-19T03:45:26;19.15;;;11.32;;
2888;SDS011;1453;42.708;23.282;2023-03-19T03:47:52;19.23;;;11.70;;
2888;SDS011;1453;42.708;23.282;2023-03-19T03:50:18;22.93;;;11.53;;
2888;SDS011;1453;42.708;23.282;2023-03-19T03:52:43;17.20;;;11.50;;
2888;SDS011;1453;42.708;23.282;2023-03-19T03:55:09;26.80;;;11.03;;
2888;SDS011;1453;42.708;23.282;2023-03-19T03:57:35;20.67;;;12.20;;
2888;SDS011;1453;42.708;23.282;2023-03-19T04:00:01;20.43;;;11.97;;
2888;SDS011;1453;42.708;23.282;2023-03-19T04:02:29;18.92;;;11.75;;
2888;SDS011;1453;42.708;23.282;2023-03-19T04:04:54;21.57;;;12.90;;
2888;SDS011;1453;42.708;23.282;2023-03-19T04:07:20;25.13;;;13.50;;
2888;SDS011;1453;42.708;23.282;2023-03-19T04:09:46;22.13;;;13.57;;
2888;SDS011;1453;42.708;23.282;2023-03-19T04:12:13;23.73;;;13.30;;
2888;SDS011;1453;42.708;23.282;2023-03-19T04:14:39;20.40;;;12.87;;
2888;SDS011;1453;42.708;23.282;2023-03-19T04:17:04;18.10;;;11.70;;
2888;SDS011;1453;42.708;23.282;2023-03-19T04:19:30;22.93;;;12.60;;
2888;SDS011;1453;42.708;23.282;2023-03-19T04:21:56;22.83;;;12.17;;
2888;SDS011;1453;42.708;23.282;2023-03-19T04:24:23;25.02;;;12.80;;
2888;SDS011;1453;42.708;23.282;2023-03-19T04:26:50;21.83;;;11.00;;
2888;SDS011;1453;42.708;23.282;2023-03-19T04:29:17;21.90;;;13.73;;
2888;SDS011;1453;42.708;23.282;2023-03-19T04:31:43;18.20;;;12.30;;
2888;SDS011;1453;42.708;23.282;2023-03-19T04:34:09;22.90;;;11.68;;
2888;SDS011;1453;42.708;23.282;2023-03-19T04:36:36;20.45;;;12.43;;
2888;SDS011;1453;42.708;23.282;2023-03-19T04:39:02;26.67;;;11.93;;
2888;SDS011;1453;42.708;23.282;2023-03-19T04:41:29;16.75;;;10.25;;
2888;SDS011;1453;42.708;23.282;2023-03-19T04:43:55;16.17;;;10.10;;
2888;SDS011;1453;42.708;23.282;2023-03-19T04:46:21;21.20;;;12.13;;
2888;SDS011;1453;42.708;23.282;2023-03-19T04:48:47;25.13;;;11.80;;
2888;SDS011;1453;42.708;23.282;2023-03-19T04:51:13;25.57;;;12.73;;
2888;SDS011;1453;42.708;23.282;2023-03-19T04:53:39;29.47;;;18.50;;
2888;SDS011;1453;42.708;23.282;2023-03-19T04:56:05;35.95;;;19.85;;
2888;SDS011;1453;42.708;23.282;2023-03-19T04:58:32;43.95;;;23.38;;
2888;SDS011;1453;42.708;23.282;2023-03-19T05:00:58;44.70;;;26.52;;
2888;SDS011;1453;42.708;23.282;2023-03-19T05:03:24;48.93;;;27.03;;
2888;SDS011;1453;42.708;23.282;2023-03-19T05:05:51;50.20;;;27.75;;
2888;SDS011;1453;42.708;23.282;2023-03-19T05:08:19;44.38;;;25.35;;
2888;SDS011;1453;42.708;23.282;2023-03-19T05:10:45;39.20;;;24.80;;
2888;SDS011;1453;42.708;23.282;2023-03-19T05:13:11;39.03;;;23.67;;
2888;SDS011;1453;42.708;23.282;2023-03-19T05:15:36;35.90;;;22.60;;
2888;SDS011;1453;42.708;23.282;2023-03-19T05:18:02;33.33;;;20.57;;
2888;SDS011;1453;42.708;23.282;2023-03-19T05:20:28;37.23;;;21.73;;
2888;SDS011;1453;42.708;23.282;2023-03-19T05:22:54;33.33;;;19.53;;
2888;SDS011;1453;42.708;23.282;2023-03-19T05:25:20;33.53;;;20.23;;
2888;SDS011;1453;42.708;23.282;2023-03-19T05:27:46;32.33;;;18.90;;
2888;SDS011;1453;42.708;23.282;2023-03-19T05:30:11;27.40;;;17.20;;
2888;SDS011;1453;42.708;23.282;2023-03-19T05:32:37;35.22;;;16.33;;
2888;SDS011;1453;42.708;23.282;2023-03-19T05:35:04;24.88;;;15.15;;
2888;SDS011;1453;42.708;23.282;2023-03-19T05:37:31;24.65;;;12.82;;
2888;SDS011;1453;42.708;23.282;2023-03-19T05:39:57;18.58;;;13.50;;
2888;SDS011;1453;42.708;23.282;2023-03-19T05:42:23;25.10;;;15.40;;
2888;SDS011;1453;42.708;23.282;2023-03-19T05:44:49;22.90;;;12.83;;
2888;SDS011;1453;42.708;23.282;2023-03-19T05:47:15;23.23;;;14.13;;
2888;SDS011;1453;42.708;23.282;2023-03-19T05:49:41;22.30;;;12.80;;
2888;SDS011;1453;42.708;23.282;2023-03-19T05:52:07;26.40;;;15.67;;
2888;SDS011;1453;42.708;23.282;2023-03-19T05:54:33;41.10;;;16.73;;
2888;SDS011;1453;42.708;23.282;2023-03-19T05:56:59;28.08;;;14.20;;
2888;SDS011;1453;42.708;23.282;2023-03-19T05:59:25;24.95;;;14.63;;
2888;SDS011;1453;42.708;23.282;2023-03-19T06:01:50;25.03;;;15.40;;
2888;SDS011;1453;42.708;23.282;2023-03-19T06:04:16;30.03;;;16.50;;
2888;SDS011;1453;42.708;23.282;2023-03-19T06:06:42;27.20;;;17.20;;
2888;SDS011;1453;42.708;23.282;2023-03-19T06:09:08;29.50;;;17.30;;
2888;SDS011;1453;42.708;23.282;2023-03-19T06:11:33;31.60;;;18.80;;
2888;SDS011;1453;42.708;23.282;2023-03-19T06:14:00;31.48;;;17.20;;
2888;SDS011;1453;42.708;23.282;2023-03-19T06:16:29;31.40;;;17.83;;
2888;SDS011;1453;42.708;23.282;2023-03-19T06:18:55;28.33;;;18.53;;
2888;SDS011;1453;42.708;23.282;2023-03-19T06:21:21;33.10;;;18.90;;
2888;SDS011;1453;42.708;23.282;2023-03-19T06:23:46;34.07;;;19.40;;
2888;SDS011;1453;42.708;23.282;2023-03-19T06:26:15;30.08;;;19.58;;
2888;SDS011;1453;42.708;23.282;2023-03-19T06:28:41;40.60;;;21.85;;
2888;SDS011;1453;42.708;23.282;2023-03-19T06:31:07;44.50;;;22.27;;
2888;SDS011;1453;42.708;23.282;2023-03-19T06:33:32;38.17;;;21.00;;
2888;SDS011;1453;42.708;23.282;2023-03-19T06:35:59;36.95;;;21.63;;
2888;SDS011;1453;42.708;23.282;2023-03-19T06:38:25;34.67;;;19.58;;
2888;SDS011;1453;42.708;23.282;2023-03-19T06:40:50;33.00;;;20.87;;
2888;SDS011;1453;42.708;23.282;2023-03-19T06:43:17;30.95;;;20.63;;
2888;SDS011;1453;42.708;23.282;2023-03-19T06:45:42;32.30;;;21.10;;
2888;SDS011;1453;42.708;23.282;2023-03-19T06:48:08;30.37;;;20.40;;
2888;SDS011;1453;42.708;23.282;2023-03-19T06:50:34;33.85;;;21.27;;
2888;SDS011;1453;42.708;23.282;2023-03-19T06:53:00;36.53;;;23.33;;
2888;SDS011;1453;42.708;23.282;2023-03-19T06:55:26;32.47;;;21.80;;
2888;SDS011;1453;42.708;23.282;2023-03-19T06:57:52;31.70;;;20.97;;
2888;SDS011;1453;42.708;23.282;2023-03-19T07:00:18;33.40;;;20.67;;
2888;SDS011;1453;42.708;23.282;2023-03-19T07:02:45;31.13;;;20.10;;
2888;SDS011;1453;42.708;23.282;2023-03-19T07:05:10;28.93;;;20.97;;
2888;SDS011;1453;42.708;23.282;2023-03-19T07:07:36;30.07;;;19.87;;
2888;SDS011;1453;42.708;23.282;2023-03-19T07:10:02;28.33;;;19.53;;
2888;SDS011;1453;42.708;23.282;2023-03-19T07:12:28;32.03;;;22.50;;
2888;SDS011;1453;42.708;23.282;2023-03-19T07:14:55;35.07;;;20.27;;
2888;SDS011;1453;42.708;23.282;2023-03-19T07:17:21;24.90;;;19.53;;
2888;SDS011;1453;42.708;23.282;2023-03-19T07:19:48;28.93;;;20.80;;
2888;SDS011;1453;42.708;23.282;2023-03-19T07:22:14;27.40;;;19.87;;
2888;SDS011;1453;42.708;23.282;2023-03-19T07:24:40;25.33;;;19.23;;
2888;SDS011;1453;42.708;23.282;2023-03-19T07:27:07;29.07;;;18.77;;
2888;SDS011;1453;42.708;23.282;2023-03-19T07:29:33;28.10;;;20.23;;
2888;SDS011;1453;42.708;23.282;2023-03-19T07:31:59;25.67;;;19.27;;
2888;SDS011;1453;42.708;23.282;2023-03-19T07:34:24;25.17;;;20.77;;
2888;SDS011;1453;42.708;23.282;2023-03-19T07:36:50;28.73;;;20.83;;
2888;SDS011;1453;42.708;23.282;2023-03-19T07:39:17;20.97;;;16.03;;
2888;SDS011;1453;42.708;23.282;2023-03-19T07:41:44;19.77;;;14.63;;
2888;SDS011;1453;42.708;23.282;2023-03-19T07:44:12;22.00;;;14.60;;
2888;SDS011;1453;42.708;23.282;2023-03-19T07:46:39;16.00;;;13.20;;
2888;SDS011;1453;42.708;23.282;2023-03-19T07:49:05;21.73;;;14.90;;
2888;SDS011;1453;42.708;23.282;2023-03-19T07:51:32;27.90;;;16.03;;
2888;SDS011;1453;42.708;23.282;2023-03-19T07:53:58;20.77;;;14.93;;
2888;SDS011;1453;42.708;23.282;2023-03-19T07:56:24;22.77;;;15.40;;
2888;SDS011;1453;42.708;23.282;2023-03-19T07:58:50;19.40;;;15.77;;
2888;SDS011;1453;42.708;23.282;2023-03-19T08:01:16;18.17;;;12.60;;
2888;SDS011;1453;42.708;23.282;2023-03-19T08:03:42;15.63;;;12.80;;
2888;SDS011;1453;42.708;23.282;2023-03-19T08:06:08;18.20;;;13.33;;
2888;SDS011;1453;42.708;23.282;2023-03-19T08:08:34;15.77;;;12.90;;
2888;SDS011;1453;42.708;23.282;2023-03-19T08:11:01;16.57;;;13.20;;
2888;SDS011;1453;42.708;23.282;2023-03-19T08:13:27;16.27;;;11.57;;
2888;SDS011;1453;42.708;23.282;2023-03-19T08:15:53;14.07;;;11.20;;
2888;SDS011;1453;42.708;23.282;2023-03-19T08:18:20;18.53;;;12.97;;
2888;SDS011;1453;42.708;23.282;2023-03-19T08:20:47;17.43;;;12.17;;
2888;SDS011;1453;42.708;23.282;2023-03-19T08:23:13;19.93;;;12.50;;
2888;SDS011;1453;42.708;23.282;2023-03-19T08:25:40;17.10;;;13.07;;
2888;SDS011;1453;42.708;23.282;2023-03-19T08:28:06;16.30;;;12.00;;
2888;SDS011;1453;42.708;23.282;2023-03-19T08:30:34;14.57;;;11.57;;
2888;SDS011;1453;42.708;23.282;2023-03-19T08:33:01;16.03;;;11.90;;
2888;SDS011;1453;42.708;23.282;2023-03-19T08:35:27;16.53;;;11.50;;
2888;SDS011;1453;42.708;23.282;2023-03-19T08:37:54;16.63;;;13.10;;
2888;SDS011;1453;42.708;23.282;2023-03-19T08:40:20;15.57;;;12.77;;
2888;SDS011;1453;42.708;23.282;2023-03-19T08:42:47;15.23;;;11.87;;
2888;SDS011;1453;42.708;23.282;2023-03-19T08:45:13;16.73;;;11.30;;
2888;SDS011;1453;42.708;23.282;2023-03-19T08:47:40;14.27;;;11.57;;
2888;SDS011;1453;42.708;23.282;2023-03-19T08:50:08;14.83;;;11.30;;
2888;SDS011;1453;42.708;23.282;2023-03-19T08:52:35;14.60;;;11.77;;
2888;SDS011;1453;42.708;23.282;2023-03-19T08:55:01;12.97;;;11.10;;
2888;SDS011;1453;42.708;23.282;2023-03-19T08:57:28;13.63;;;12.10;;
2888;SDS011;1453;42.708;23.282;2023-03-19T08:59:56;16.20;;;14.07;;
2888;SDS011;1453;42.708;23.282;2023-03-19T09:02:22;16.30;;;13.20;;
2888;SDS011;1453;42.708;23.282;2023-03-19T09:04:47;16.17;;;11.60;;
2888;SDS011;1453;42.708;23.282;2023-03-19T09:07:13;13.70;;;12.30;;
2888;SDS011;1453;42.708;23.282;2023-03-19T09:09:40;20.70;;;13.27;;
2888;SDS011;1453;42.708;23.282;2023-03-19T09:12:08;14.90;;;13.00;;
2888;SDS011;1453;42.708;23.282;2023-03-19T09:14:37;14.80;;;12.00;;
2888;SDS011;1453;42.708;23.282;2023-03-19T09:17:03;18.37;;;12.63;;
2888;SDS011;1453;42.708;23.282;2023-03-19T09:19:30;15.90;;;12.60;;
2888;SDS011;1453;42.708;23.282;2023-03-19T09:21:57;16.67;;;12.37;;
2888;SDS011;1453;42.708;23.282;2023-03-19T09:24:23;15.87;;;13.00;;
2888;SDS011;1453;42.708;23.282;2023-03-19T09:26:50;16.60;;;12.20;;
2888;SDS011;1453;42.708;23.282;2023-03-19T09:29:16;19.03;;;13.17;;
2888;SDS011;1453;42.708;23.282;2023-03-19T09:31:42;11.00;;;9.90;;
2888;SDS011;1453;42.708;23.282;2023-03-19T09:34:08;16.10;;;13.03;;
2888;SDS011;1453;42.708;23.282;2023-03-19T09:36:34;18.60;;;12.80;;
2888;SDS011;1453;42.708;23.282;2023-03-19T09:39:02;12.90;;;10.67;;
2888;SDS011;1453;42.708;23.282;2023-03-19T09:44:37;16.57;;;11.73;;
2888;SDS011;1453;42.708;23.282;2023-03-19T09:50:09;12.57;;;10.63;;
2888;SDS011;1453;42.708;23.282;2023-03-19T09:52:40;18.90;;;11.60;;
2888;SDS011;1453;42.708;23.282;2023-03-19T09:57:57;12.60;;;10.67;;
2888;SDS011;1453;42.708;23.282;2023-03-19T10:00:29;11.20;;;9.70;;
2888;SDS011;1453;42.708;23.282;2023-03-19T10:11:47;22.10;;;17.83;;
2888;SDS011;1453;42.708;23.282;2023-03-19T10:17:23;11.33;;;9.87;;
2888;SDS011;1453;42.708;23.282;2023-03-19T10:20:06;12.00;;;9.23;;
2888;SDS011;1453;42.708;23.282;2023-03-19T10:22:37;10.60;;;9.03;;
2888;SDS011;1453;42.708;23.282;2023-03-19T10:25:12;11.00;;;8.27;;
2888;SDS011;1453;42.708;23.282;2023-03-19T10:27:49;10.20;;;8.03;;
2888;SDS011;1453;42.708;23.282;2023-03-19T10:30:22;10.40;;;7.80;;
2888;SDS011;1453;42.708;23.282;2023-03-19T10:32:52;8.83;;;7.80;;
2888;SDS011;1453;42.708;23.282;2023-03-19T10:35:39;10.00;;;8.30;;
2888;SDS011;1453;42.708;23.282;2023-03-19T10:38:14;10.13;;;8.77;;
2888;SDS011;1453;42.708;23.282;2023-03-19T10:41:32;12.47;;;9.77;;
2888;SDS011;1453;42.708;23.282;2023-03-19T10:43:50;11.60;;;8.90;;
2888;SDS011;1453;42.708;23.282;2023-03-19T10:46:19;11.73;;;9.83;;
2888;SDS011;1453;42.708;23.282;2023-03-19T10:48:46;9.40;;;8.40;;
2888;SDS011;1453;42.708;23.282;2023-03-19T10:51:13;10.20;;;8.47;;
2888;SDS011;1453;42.708;23.282;2023-03-19T10:53:45;13.37;;;8.70;;
2888;SDS011;1453;42.708;23.282;2023-03-19T10:56:21;10.10;;;8.57;;
2888;SDS011;1453;42.708;23.282;2023-03-19T11:01:31;12.20;;;9.10;;
2888;SDS011;1453;42.708;23.282;2023-03-19T11:04:01;12.43;;;9.23;;
2888;SDS011;1453;42.708;23.282;2023-03-19T11:06:36;12.50;;;10.30;;
2888;SDS011;1453;42.708;23.282;2023-03-19T11:11:33;10.37;;;9.20;;
2888;SDS011;1453;42.708;23.282;2023-03-19T11:14:15;10.43;;;9.30;;
2888;SDS011;1453;42.708;23.282;2023-03-19T11:16:49;16.07;;;10.57;;
2888;SDS011;1453;42.708;23.282;2023-03-19T11:19:28;12.53;;;9.90;;
2888;SDS011;1453;42.708;23.282;2023-03-19T11:24:38;12.13;;;10.40;;
2888;SDS011;1453;42.708;23.282;2023-03-19T11:27:06;12.23;;;10.93;;
2888;SDS011;1453;42.708;23.282;2023-03-19T11:29:43;13.10;;;11.07;;
2888;SDS011;1453;42.708;23.282;2023-03-19T11:35:22;11.93;;;10.70;;
2888;SDS011;1453;42.708;23.282;2023-03-19T11:38:00;14.03;;;9.70;;
2888;SDS011;1453;42.708;23.282;2023-03-19T11:51:48;10.60;;;9.50;;
2888;SDS011;1453;42.708;23.282;2023-03-19T11:54:48;12.53;;;11.20;;
2888;SDS011;1453;42.708;23.282;2023-03-19T12:00:28;11.77;;;9.60;;
2888;SDS011;1453;42.708;23.282;2023-03-19T12:03:17;15.00;;;13.50;;
2888;SDS011;1453;42.708;23.282;2023-03-19T12:23:24;10.47;;;8.90;;
2888;SDS011;1453;42.708;23.282;2023-03-19T12:26:13;12.30;;;8.83;;
2888;SDS011;1453;42.708;23.282;2023-03-19T12:34:58;12.40;;;8.63;;
2888;SDS011;1453;42.708;23.282;2023-03-19T12:37:41;12.30;;;9.10;;
2888;SDS011;1453;42.708;23.282;2023-03-19T12:43:01;13.40;;;8.83;;
2888;SDS011;1453;42.708;23.282;2023-03-19T12:45:37;10.90;;;8.90;;
2888;SDS011;1453;42.708;23.282;2023-03-19T12:50:44;9.57;;;7.70;;
2888;SDS011;1453;42.708;23.282;2023-03-19T12:56:38;10.13;;;8.13;;
2888;SDS011;1453;42.708;23.282;2023-03-19T13:02:11;9.80;;;8.80;;
2888;SDS011;1453;42.708;23.282;2023-03-19T13:05:02;11.20;;;8.80;;
2888;SDS011;1453;42.708;23.282;2023-03-19T13:10:27;9.57;;;7.90;;
2888;SDS011;1453;42.708;23.282;2023-03-19T13:12:56;12.70;;;8.87;;
2888;SDS011;1453;42.708;23.282;2023-03-19T13:15:30;10.63;;;7.63;;
2888;SDS011;1453;42.708;23.282;2023-03-19T13:21:16;9.07;;;6.97;;
2888;SDS011;1453;42.708;23.282;2023-03-19T13:24:03;8.50;;;6.20;;
2888;SDS011;1453;42.708;23.282;2023-03-19T13:26:49;11.90;;;10.20;;
2888;SDS011;1453;42.708;23.282;2023-03-19T13:31:46;13.47;;;6.97;;
2888;SDS011;1453;42.708;23.282;2023-03-19T13:36:45;11.03;;;7.10;;
2888;SDS011;1453;42.708;23.282;2023-03-19T13:39:38;11.60;;;6.40;;
2888;SDS011;1453;42.708;23.282;2023-03-19T13:56:25;9.13;;;6.20;;
2888;SDS011;1453;42.708;23.282;2023-03-19T13:59:38;10.43;;;6.73;;
2888;SDS011;1453;42.708;23.282;2023-03-19T14:01:51;9.93;;;5.70;;
2888;SDS011;1453;42.708;23.282;2023-03-19T14:04:54;10.40;;;5.80;;
2888;SDS011;1453;42.708;23.282;2023-03-19T14:07:38;9.50;;;7.10;;
2888;SDS011;1453;42.708;23.282;2023-03-19T14:10:29;6.33;;;5.73;;
2888;SDS011;1453;42.708;23.282;2023-03-19T14:13:03;7.33;;;5.93;;
2888;SDS011;1453;42.708;23.282;2023-03-19T14:15:32;9.80;;;6.00;;
2888;SDS011;1453;42.708;23.282;2023-03-19T14:18:02;9.10;;;6.20;;
2888;SDS011;1453;42.708;23.282;2023-03-19T14:20:34;6.30;;;5.37;;
2888;SDS011;1453;42.708;23.282;2023-03-19T14:25:51;8.77;;;6.73;;
2888;SDS011;1453;42.708;23.282;2023-03-19T14:28:29;10.57;;;6.43;;
2888;SDS011;1453;42.708;23.282;2023-03-19T14:31:27;9.50;;;7.40;;
2888;SDS011;1453;42.708;23.282;2023-03-19T14:34:10;10.57;;;6.73;;
2888;SDS011;1453;42.708;23.282;2023-03-19T14:39:32;8.20;;;5.77;;
2888;SDS011;1453;42.708;23.282;2023-03-19T14:42:10;10.30;;;7.00;;
2888;SDS011;1453;42.708;23.282;2023-03-19T14:51:00;8.57;;;5.83;;
2888;SDS011;1453;42.708;23.282;2023-03-19T14:53:49;8.47;;;7.33;;
2888;SDS011;1453;42.708;23.282;2023-03-19T14:56:34;8.73;;;7.83;;
2888;SDS011;1453;42.708;23.282;2023-03-19T14:59:01;8.40;;;6.03;;
2888;SDS011;1453;42.708;23.282;2023-03-19T15:01:32;7.60;;;5.80;;
2888;SDS011;1453;42.708;23.282;2023-03-19T15:04:05;9.50;;;6.60;;
2888;SDS011;1453;42.708;23.282;2023-03-19T15:06:42;6.03;;;5.40;;
2888;SDS011;1453;42.708;23.282;2023-03-19T15:09:24;6.30;;;5.70;;
2888;SDS011;1453;42.708;23.282;2023-03-19T15:12:05;8.03;;;5.97;;
2888;SDS011;1453;42.708;23.282;2023-03-19T15:17:36;8.60;;;5.33;;
2888;SDS011;1453;42.708;23.282;2023-03-19T15:20:07;6.47;;;5.67;;
2888;SDS011;1453;42.708;23.282;2023-03-19T15:22:59;8.70;;;5.93;;
2888;SDS011;1453;42.708;23.282;2023-03-19T15:25:26;8.20;;;6.27;;
2888;SDS011;1453;42.708;23.282;2023-03-19T15:28:09;8.60;;;6.10;;
2888;SDS011;1453;42.708;23.282;2023-03-19T15:30:38;8.60;;;6.70;;
2888;SDS011;1453;42.708;23.282;2023-03-19T15:33:20;6.30;;;5.60;;
2888;SDS011;1453;42.708;23.282;2023-03-19T15:35:52;7.97;;;6.10;;
2888;SDS011;1453;42.708;23.282;2023-03-19T15:38:35;9.47;;;6.33;;
2888;SDS011;1453;42.708;23.282;2023-03-19T15:41:34;16.53;;;6.57;;
2888;SDS011;1453;42.708;23.282;2023-03-19T15:44:09;8.23;;;6.20;;
2888;SDS011;1453;42.708;23.282;2023-03-19T15:46:42;6.00;;;5.20;;
2888;SDS011;1453;42.708;23.282;2023-03-19T15:49:14;11.07;;;8.90;;
2888;SDS011;1453;42.708;23.282;2023-03-19T15:51:49;10.77;;;6.63;;
2888;SDS011;1453;42.708;23.282;2023-03-19T15:54:22;7.63;;;5.60;;
2888;SDS011;1453;42.708;23.282;2023-03-19T15:56:48;8.87;;;5.50;;
2888;SDS011;1453;42.708;23.282;2023-03-19T15:59:16;8.67;;;5.70;;
2888;SDS011;1453;42.708;23.282;2023-03-19T16:01:44;13.77;;;6.27;;
2888;SDS011;1453;42.708;23.282;2023-03-19T16:04:15;14.23;;;7.40;;
2888;SDS011;1453;42.708;23.282;2023-03-19T16:06:53;13.73;;;7.80;;
2888;SDS011;1453;42.708;23.282;2023-03-19T16:11:51;11.97;;;8.03;;
2888;SDS011;1453;42.708;23.282;2023-03-19T16:14:20;9.53;;;7.20;;
2888;SDS011;1453;42.708;23.282;2023-03-19T16:17:10;10.90;;;7.53;;
2888;SDS011;1453;42.708;23.282;2023-03-19T16:19:55;12.17;;;6.80;;
2888;SDS011;1453;42.708;23.282;2023-03-19T16:22:30;12.20;;;9.30;;
2888;SDS011;1453;42.708;23.282;2023-03-19T16:24:57;15.33;;;10.77;;
2888;SDS011;1453;42.708;23.282;2023-03-19T16:27:36;10.60;;;9.20;;
2888;SDS011;1453;42.708;23.282;2023-03-19T16:30:12;18.13;;;10.60;;
2888;SDS011;1453;42.708;23.282;2023-03-19T16:32:55;16.00;;;10.80;;
2888;SDS011;1453;42.708;23.282;2023-03-19T16:35:24;13.90;;;9.90;;
2888;SDS011;1453;42.708;23.282;2023-03-19T16:37:52;13.70;;;10.80;;
2888;SDS011;1453;42.708;23.282;2023-03-19T16:42:48;14.20;;;10.50;;
2888;SDS011;1453;42.708;23.282;2023-03-19T16:47:56;19.17;;;10.50;;
2888;SDS011;1453;42.708;23.282;2023-03-19T16:50:29;23.60;;;14.53;;
2888;SDS011;1453;42.708;23.282;2023-03-19T16:53:01;29.60;;;18.00;;
2888;SDS011;1453;42.708;23.282;2023-03-19T16:55:33;31.20;;;17.97;;
2888;SDS011;1453;42.708;23.282;2023-03-19T16:58:05;27.30;;;19.03;;
2888;SDS011;1453;42.708;23.282;2023-03-19T17:00:38;34.90;;;24.67;;
2888;SDS011;1453;42.708;23.282;2023-03-19T17:03:11;26.47;;;16.10;;
2888;SDS011;1453;42.708;23.282;2023-03-19T17:05:42;21.33;;;14.10;;
2888;SDS011;1453;42.708;23.282;2023-03-19T17:08:09;19.40;;;14.90;;
2888;SDS011;1453;42.708;23.282;2023-03-19T17:10:36;22.03;;;15.23;;
2888;SDS011;1453;42.708;23.282;2023-03-19T17:13:08;27.67;;;18.23;;